Time;durP1;ratioP1;P1;durP2;ratioP2;P2;SDS_P1;SDS_P2;PMS_P1;PMS_P2;Temp;Humidity;BMP_temperature;BMP_pressure;BME280_temperature;BME280_humidity;BME280_pressure;Samples;Min_cycle;Max_cycle;Signal;HPM_P1;HPM_P2
2022/04/28 00:01:08;;;;;;;4.93;3.73;;;16.00;65.70;;;;;;5033968;28;20539;-67
2022/04/28 00:03:36;;;;;;;4.10;3.80;;;16.00;65.70;;;;;;5028490;28;20517;-67
2022/04/28 00:06:04;;;;;;;3.70;3.40;;;16.00;65.50;;;;;;5034178;28;20492;-67
2022/04/28 00:08:34;;;;;;;3.20;3.00;;;16.00;65.60;;;;;;5033626;28;20471;-67
2022/04/28 00:11:02;;;;;;;4.13;3.73;;;16.00;66.90;;;;;;5032989;28;20590;-67
2022/04/28 00:13:30;;;;;;;4.07;3.77;;;16.00;65.60;;;;;;5033516;28;20983;-68
2022/04/28 00:15:58;;;;;;;4.27;3.97;;;16.00;65.50;;;;;;5034158;28;21035;-68
2022/04/28 00:18:27;;;;;;;4.30;3.73;;;16.00;65.50;;;;;;5034205;28;20428;-70
2022/04/28 00:20:55;;;;;;;4.00;3.60;;;16.00;65.70;;;;;;5029620;28;20444;-67
2022/04/28 00:23:23;;;;;;;4.03;3.67;;;16.00;65.60;;;;;;5033700;28;20946;-68
2022/04/28 00:25:52;;;;;;;4.07;3.77;;;16.00;65.60;;;;;;5026191;28;20551;-69
2022/04/28 00:28:20;;;;;;;4.77;4.37;;;16.00;65.50;;;;;;5034153;28;20429;-68
2022/04/28 00:30:49;;;;;;;4.07;3.77;;;16.00;65.50;;;;;;5033526;28;21055;-67
2022/04/28 00:33:20;;;;;;;4.13;3.60;;;16.00;65.60;;;;;;5032517;28;20926;-68
2022/04/28 00:35:48;;;;;;;4.03;3.73;;;15.90;65.60;;;;;;5030484;28;21006;-68
2022/04/28 00:38:17;;;;;;;3.63;3.33;;;15.90;65.40;;;;;;5033523;28;20479;-68
2022/04/28 00:40:45;;;;;;;4.20;3.80;;;16.00;65.50;;;;;;5032246;28;20992;-68
2022/04/28 00:43:23;;;;;;;4.20;3.80;;;16.00;65.60;;;;;;5032161;28;20447;-67
2022/04/28 00:45:52;;;;;;;6.70;4.13;;;15.90;65.40;;;;;;5023165;28;20700;-68
2022/04/28 00:51:09;;;;;;;3.87;3.47;;;15.90;65.50;;;;;;4997181;28;20471;-68
2022/04/28 00:53:43;;;;;;;4.50;3.47;;;15.90;65.60;;;;;;5032046;28;20833;-68
2022/04/28 00:56:11;;;;;;;3.73;3.43;;;15.90;65.60;;;;;;5031565;28;20795;-68
2022/04/28 00:58:41;;;;;;;4.40;4.00;;;15.90;65.50;;;;;;5031444;28;20475;-68
2022/04/28 01:01:09;;;;;;;3.50;3.30;;;15.90;65.60;;;;;;5027432;28;20436;-66
2022/04/28 01:03:37;;;;;;;4.50;3.30;;;15.90;65.70;;;;;;5018625;28;20459;-67
2022/04/28 01:06:07;;;;;;;3.80;3.50;;;15.90;65.70;;;;;;5032782;28;20462;-68
2022/04/28 01:08:35;;;;;;;4.07;3.37;;;15.90;65.70;;;;;;5032750;28;20859;-68
2022/04/28 01:11:04;;;;;;;5.43;3.57;;;15.90;65.60;;;;;;5026424;28;20444;-68
2022/04/28 01:13:40;;;;;;;3.77;3.47;;;15.90;65.70;;;;;;5031104;28;20428;-68
2022/04/28 01:16:15;;;;;;;3.10;2.83;;;15.90;65.70;;;;;;5032118;28;20523;-68
2022/04/28 01:18:43;;;;;;;4.13;3.30;;;15.90;65.70;;;;;;5031306;28;20813;-68
2022/04/28 01:21:13;;;;;;;3.90;3.60;;;15.90;65.50;;;;;;5029710;28;20444;-68
2022/04/28 01:23:46;;;;;;;4.10;3.70;;;15.90;65.50;;;;;;5030978;28;20451;-69
2022/04/28 01:26:16;;;;;;;3.70;3.40;;;15.90;65.60;;;;;;5030616;28;20494;-67
2022/04/28 01:28:44;;;;;;;2.87;2.67;;;15.90;65.70;;;;;;5032461;28;20467;-69
2022/04/28 01:31:12;;;;;;;3.87;3.57;;;15.90;65.70;;;;;;5031137;28;20494;-67
2022/04/28 01:33:48;;;;;;;3.90;3.60;;;15.90;65.60;;;;;;5030578;28;20455;-68
2022/04/28 01:36:21;;;;;;;3.03;2.83;;;15.90;65.60;;;;;;5046932;28;20444;-67
2022/04/28 01:39:09;;;;;;;3.90;3.50;;;15.90;65.60;;;;;;5030933;28;20466;-67
2022/04/28 01:41:57;;;;;;;3.63;3.30;;;15.90;65.70;;;;;;5019665;28;20965;-66
2022/04/28 01:44:44;;;;;;;3.97;3.67;;;15.90;65.60;;;;;;5030674;28;20486;-68
2022/04/28 01:47:31;;;;;;;3.67;3.37;;;15.90;65.70;;;;;;5031904;28;20531;-65
2022/04/28 01:54:57;;;;;;;3.27;2.87;;;15.90;65.70;;;;;;5024774;28;20479;-67
2022/04/28 01:56:58;;;;;;;3.80;3.47;;;15.80;65.50;;;;;;5028017;28;20531;-68
2022/04/28 01:59:36;;;;;;;4.10;3.80;;;15.80;65.50;;;;;;5029957;28;20466;-67
2022/04/28 02:02:23;;;;;;;3.60;3.37;;;15.80;65.60;;;;;;5031281;28;20447;-69
2022/04/28 02:04:52;;;;;;;3.97;3.67;;;15.80;65.60;;;;;;5029302;28;20472;-67
2022/04/28 02:07:21;;;;;;;3.67;3.33;;;15.80;65.70;;;;;;5031921;28;20846;-68
2022/04/28 02:09:50;;;;;;;4.00;3.60;;;15.80;65.70;;;;;;5026922;28;20476;-68
2022/04/28 02:12:18;;;;;;;4.00;3.70;;;15.80;65.60;;;;;;5030354;28;20440;-68
2022/04/28 02:15:06;;;;;;;4.10;3.80;;;15.80;65.70;;;;;;5031049;28;20478;-68
2022/04/28 02:17:36;;;;;;;3.83;3.53;;;15.80;65.80;;;;;;5031997;28;20432;-67
2022/04/28 02:20:06;;;;;;;3.73;3.37;;;15.80;65.70;;;;;;5029042;28;20504;-67
2022/04/28 02:22:36;;;;;;;3.63;3.33;;;15.80;65.70;;;;;;5031530;28;20447;-67
2022/04/28 02:25:06;;;;;;;3.80;3.50;;;15.80;65.70;;;;;;5029421;28;20500;-67
2022/04/28 02:27:35;;;;;;;3.30;3.10;;;15.80;65.70;;;;;;5030380;28;20455;-66
2022/04/28 02:30:04;;;;;;;3.83;3.53;;;15.80;65.70;;;;;;5030722;28;21000;-67
2022/04/28 02:35:16;;;;;;;3.90;3.60;;;15.80;65.60;;;;;;5023233;28;20474;-68
2022/04/28 02:37:46;;;;;;;3.83;3.53;;;15.80;65.70;;;;;;5030589;28;20455;-68
2022/04/28 02:40:16;;;;;;;3.70;3.40;;;15.80;65.80;;;;;;5022688;28;20571;-68
2022/04/28 02:42:45;;;;;;;3.73;3.43;;;15.80;65.70;;;;;;5030495;28;20476;-67
2022/04/28 02:45:13;;;;;;;3.30;3.10;;;15.80;67.00;;;;;;5030698;28;20510;-67
2022/04/28 02:47:50;;;;;;;5.17;3.50;;;15.80;65.80;;;;;;5030364;28;20432;-67
2022/04/28 02:50:21;;;;;;;3.20;3.00;;;15.80;65.70;;;;;;5027791;28;21058;-67
2022/04/28 02:52:50;;;;;;;3.47;3.27;;;15.80;65.70;;;;;;5030633;28;20440;-67
2022/04/28 02:55:21;;;;;;;4.17;3.50;;;15.80;65.70;;;;;;5023582;28;20471;-69
2022/04/28 02:57:49;;;;;;;4.03;3.63;;;15.80;65.80;;;;;;5030228;28;20438;-68
2022/04/28 03:00:17;;;;;;;4.90;4.40;;;15.80;65.80;;;;;;5026919;28;20468;-67
2022/04/28 03:02:58;;;;;;;3.90;3.57;;;15.70;65.70;;;;;;5029225;28;20498;-66
2022/04/28 03:05:26;;;;;;;5.10;3.37;;;15.70;65.60;;;;;;5024035;28;20510;-67
2022/04/28 03:10:49;;;;;;;3.73;3.43;;;15.70;65.60;;;;;;5028745;28;20488;-65
2022/04/28 03:13:21;;;;;;;4.00;3.67;;;15.70;65.70;;;;;;5033703;28;20779;-66
2022/04/28 03:15:52;;;;;;;3.53;3.23;;;15.70;65.70;;;;;;5033568;28;20557;-67
2022/04/28 03:18:28;;;;;;;3.47;3.17;;;15.70;65.70;;;;;;5033877;28;20493;-68
2022/04/28 03:20:56;;;;;;;3.70;3.40;;;15.70;65.80;;;;;;5034117;28;20514;-68
2022/04/28 03:23:24;;;;;;;3.40;3.13;;;15.70;65.90;;;;;;5033863;28;20435;-68
2022/04/28 03:25:54;;;;;;;3.40;3.10;;;15.70;65.70;;;;;;5027413;28;20475;-68
2022/04/28 03:28:23;;;;;;;4.10;3.70;;;15.70;65.80;;;;;;5033546;28;20431;-67
2022/04/28 03:30:51;;;;;;;4.00;3.70;;;15.70;65.70;;;;;;5034638;28;20870;-68
2022/04/28 03:33:23;;;;;;;3.70;3.40;;;15.70;65.70;;;;;;5033110;28;20529;-67
2022/04/28 03:35:53;;;;;;;3.37;3.07;;;15.70;65.80;;;;;;5033965;28;20556;-68
2022/04/28 03:38:21;;;;;;;3.33;3.10;;;15.70;65.80;;;;;;5033302;28;20949;-68
2022/04/28 03:40:49;;;;;;;3.47;3.17;;;15.70;65.70;;;;;;5032814;28;20487;-67
2022/04/28 03:43:19;;;;;;;5.33;3.80;;;15.70;65.80;;;;;;5034222;28;20428;-67
2022/04/28 03:45:47;;;;;;;4.63;3.60;;;15.60;65.70;;;;;;5034077;28;20467;-68
2022/04/28 03:48:20;;;;;;;4.13;3.83;;;15.70;65.90;;;;;;5033589;28;20450;-68
2022/04/28 03:50:49;;;;;;;3.63;3.33;;;15.60;65.70;;;;;;5044129;28;20476;-68
2022/04/28 03:53:17;;;;;;;5.40;3.40;;;15.60;65.90;;;;;;5034448;28;20995;-68
2022/04/28 03:55:45;;;;;;;2.90;2.70;;;15.60;65.90;;;;;;5032293;28;20483;-65
2022/04/28 03:58:13;;;;;;;3.60;3.30;;;15.60;65.80;;;;;;5034262;28;20447;-67
2022/04/28 04:00:48;;;;;;;3.90;3.57;;;15.60;65.90;;;;;;5033851;28;20475;-68
2022/04/28 04:03:26;;;;;;;3.17;2.80;;;15.60;65.90;;;;;;5032104;28;20543;-67
2022/04/28 04:05:55;;;;;;;3.47;3.20;;;15.60;66.00;;;;;;5029126;28;20467;-67
2022/04/28 04:08:24;;;;;;;4.20;3.20;;;15.60;66.00;;;;;;5032979;28;20471;-68
2022/04/28 04:11:11;;;;;;;3.37;3.03;;;15.60;66.10;;;;;;5028931;28;20491;-68
2022/04/28 04:13:39;;;;;;;3.80;3.40;;;15.60;66.20;;;;;;5033989;28;20797;-67
2022/04/28 04:16:10;;;;;;;3.50;3.20;;;15.60;66.10;;;;;;5032791;28;20460;-67
2022/04/28 04:18:53;;;;;;;4.20;3.37;;;15.60;66.00;;;;;;5022749;28;20460;-67
2022/04/28 04:21:27;;;;;;;3.50;3.20;;;15.60;65.90;;;;;;5032887;28;20893;-67
2022/04/28 04:23:55;;;;;;;3.80;3.50;;;15.60;66.10;;;;;;5031712;28;20463;-67
2022/04/28 04:26:24;;;;;;;3.50;3.20;;;15.50;65.90;;;;;;5029141;28;20467;-66
2022/04/28 04:28:52;;;;;;;3.80;3.50;;;15.60;66.10;;;;;;5032180;28;20452;-67
2022/04/28 04:35:05;;;;;;;3.90;3.47;;;15.50;66.00;;;;;;5030062;28;20859;-65
2022/04/28 04:37:44;;;;;;;3.67;3.37;;;15.50;65.90;;;;;;5030427;28;20806;-67
2022/04/28 04:40:13;;;;;;;3.40;3.20;;;15.50;65.90;;;;;;5026082;28;20471;-68
2022/04/28 04:42:42;;;;;;;3.50;3.17;;;15.50;65.90;;;;;;5032612;28;20475;-68
2022/04/28 04:45:12;;;;;;;3.80;3.33;;;15.50;65.90;;;;;;5031872;28;20464;-67
2022/04/28 04:48:06;;;;;;;4.03;3.63;;;15.50;65.90;;;;;;5032228;28;20930;-67
2022/04/28 04:50:42;;;;;;;4.20;3.90;;;15.50;65.90;;;;;;5026955;28;20464;-67
2022/04/28 04:53:31;;;;;;;3.97;3.63;;;15.50;66.00;;;;;;5031538;28;20436;-67
2022/04/28 04:56:00;;;;;;;4.70;3.97;;;15.50;65.90;;;;;;5025027;28;20470;-68
2022/04/28 04:58:29;;;;;;;3.70;3.40;;;15.50;66.00;;;;;;5033359;28;20443;-67
2022/04/28 05:00:59;;;;;;;3.77;3.43;;;15.50;66.00;;;;;;5032004;28;20464;-67
2022/04/28 05:03:37;;;;;;;4.30;3.90;;;15.50;66.00;;;;;;5026030;28;20444;-66
2022/04/28 05:06:16;;;;;;;3.37;3.17;;;15.50;65.90;;;;;;5031258;28;20454;-68
2022/04/28 05:09:13;;;;;;;4.93;4.17;;;15.50;65.90;;;;;;5027871;28;20550;-67
2022/04/28 05:11:41;;;;;;;4.13;3.73;;;15.50;66.00;;;;;;5031819;28;20515;-68
2022/04/28 05:14:13;;;;;;;3.10;2.83;;;15.50;65.90;;;;;;5030933;28;20484;-68
2022/04/28 05:16:41;;;;;;;3.40;3.20;;;15.50;66.00;;;;;;5026714;28;20435;-67
2022/04/28 05:19:19;;;;;;;4.00;3.60;;;15.50;65.90;;;;;;5030707;28;20488;-68
2022/04/28 05:21:51;;;;;;;3.80;3.50;;;15.50;65.90;;;;;;5032854;28;20432;-66
2022/04/28 05:24:39;;;;;;;3.40;3.10;;;15.40;65.90;;;;;;5028512;28;20476;-68
2022/04/28 05:27:40;;;;;;;4.07;3.67;;;15.40;66.00;;;;;;4995186;28;20486;-67
2022/04/28 05:30:27;;;;;;;4.67;3.40;;;15.40;66.00;;;;;;5032171;28;20475;-68
2022/04/28 05:33:18;;;;;;;3.73;3.37;;;15.40;66.00;;;;;;5026787;28;20459;-67
2022/04/28 05:36:02;;;;;;;3.83;3.53;;;15.40;65.90;;;;;;5027023;28;20468;-68
2022/04/28 05:38:32;;;;;;;3.60;3.30;;;15.40;66.00;;;;;;5031629;28;20780;-69
2022/04/28 05:41:00;;;;;;;4.43;4.03;;;15.40;65.90;;;;;;5030484;28;20494;-66
2022/04/28 05:46:25;;;;;;;4.03;3.70;;;15.40;66.00;;;;;;5019187;28;20480;-67
2022/04/28 05:48:54;;;;;;;3.97;3.67;;;15.40;65.90;;;;;;5027048;28;20498;-67
2022/04/28 05:51:23;;;;;;;2.87;2.67;;;15.40;65.90;;;;;;5030874;28;20556;-68
2022/04/28 05:53:52;;;;;;;5.60;4.33;;;15.40;65.80;;;;;;5031875;28;20456;-66
2022/04/28 05:56:20;;;;;;;4.23;3.20;;;15.40;65.90;;;;;;5030029;28;20845;-68
2022/04/28 05:58:55;;;;;;;3.67;3.37;;;15.40;65.90;;;;;;5030286;28;20458;-68
2022/04/28 06:01:42;;;;;;;3.70;3.40;;;15.40;65.90;;;;;;5032259;28;20436;-66
2022/04/28 06:04:14;;;;;;;5.50;3.43;;;15.40;65.90;;;;;;5028680;28;20989;-68
2022/04/28 06:06:47;;;;;;;3.67;3.37;;;15.40;65.80;;;;;;5044338;28;20817;-67
2022/04/28 06:09:30;;;;;;;4.73;3.63;;;15.40;65.70;;;;;;5029018;28;20499;-68
2022/04/28 06:11:59;;;;;;;3.10;2.87;;;15.40;65.80;;;;;;5030661;28;20440;-66
2022/04/28 06:14:29;;;;;;;4.50;4.10;;;15.40;65.90;;;;;;5029843;28;20480;-67
2022/04/28 06:17:04;;;;;;;3.80;3.50;;;15.40;65.80;;;;;;5032007;28;20845;-67
2022/04/28 06:19:33;;;;;;;3.07;2.87;;;15.40;65.70;;;;;;5029640;28;21005;-68
2022/04/28 06:22:08;;;;;;;3.87;3.57;;;15.40;65.70;;;;;;5031807;28;20954;-66
2022/04/28 06:24:42;;;;;;;3.80;3.50;;;15.40;65.80;;;;;;5028581;28;20586;-67
2022/04/28 06:27:11;;;;;;;3.40;3.10;;;15.40;65.70;;;;;;5030411;28;20471;-66
2022/04/28 06:29:44;;;;;;;4.00;3.60;;;15.40;65.60;;;;;;5023733;28;20467;-67
2022/04/28 06:32:12;;;;;;;4.10;3.70;;;15.30;65.60;;;;;;5030097;28;20837;-67
2022/04/28 06:34:59;;;;;;;5.10;3.87;;;15.40;65.60;;;;;;5028211;28;20549;-67
2022/04/28 06:37:33;;;;;;;4.17;3.87;;;15.30;64.70;;;;;;5029808;28;20467;-68
2022/04/28 06:40:04;;;;;;;4.43;4.03;;;15.30;65.00;;;;;;5025880;28;20480;-66
2022/04/28 06:42:33;;;;;;;4.60;4.20;;;15.30;65.20;;;;;;5026609;28;20448;-67
2022/04/28 06:45:21;;;;;;;5.80;4.77;;;15.30;64.50;;;;;;5017270;28;20474;-65
2022/04/28 06:48:02;;;;;;;5.37;4.87;;;15.30;64.70;;;;;;5029046;28;20508;-69
2022/04/28 06:50:42;;;;;;;5.13;4.03;;;15.40;64.40;;;;;;5012118;28;20811;-68
2022/04/28 06:53:30;;;;;;;5.90;4.57;;;15.40;64.20;;;;;;5030422;28;20467;-68
2022/04/28 06:56:02;;;;;;;3.40;3.10;;;15.40;64.10;;;;;;5028099;28;20474;-68
2022/04/28 06:58:38;;;;;;;3.50;3.00;;;15.40;64.60;;;;;;5044952;28;20806;-67
2022/04/28 07:01:12;;;;;;;4.57;3.50;;;15.40;64.60;;;;;;5030384;28;21025;-67
2022/04/28 07:03:41;;;;;;;3.80;3.33;;;15.40;64.60;;;;;;5029973;28;20436;-67
2022/04/28 07:06:10;;;;;;;4.50;3.90;;;15.40;64.60;;;;;;5029330;28;20506;-67
2022/04/28 07:08:39;;;;;;;4.00;3.50;;;15.40;64.60;;;;;;5029510;28;20822;-66
2022/04/28 07:11:07;;;;;;;3.23;2.93;;;15.40;64.70;;;;;;5024454;28;20445;-67
2022/04/28 07:13:37;;;;;;;3.30;3.10;;;15.50;64.70;;;;;;5024823;28;20444;-67
2022/04/28 07:16:24;;;;;;;5.17;3.50;;;15.50;64.70;;;;;;5029011;28;20459;-65
2022/04/28 07:18:58;;;;;;;3.47;3.17;;;15.50;64.70;;;;;;5028008;28;21000;-67
2022/04/28 07:21:27;;;;;;;3.00;2.80;;;15.50;64.70;;;;;;5026008;28;20494;-66
2022/04/28 07:23:57;;;;;;;3.50;3.03;;;15.50;64.60;;;;;;5029536;28;20445;-68
2022/04/28 07:26:29;;;;;;;3.00;2.80;;;15.50;64.70;;;;;;5028823;28;20953;-67
2022/04/28 07:28:57;;;;;;;3.63;3.33;;;15.50;64.70;;;;;;5028687;28;20869;-67
2022/04/28 07:31:37;;;;;;;4.40;3.50;;;15.50;64.60;;;;;;5030236;28;20582;-66
2022/04/28 07:34:12;;;;;;;3.97;3.33;;;15.50;64.70;;;;;;5021689;28;20479;-67
2022/04/28 07:36:58;;;;;;;3.17;2.97;;;15.50;64.70;;;;;;5031420;28;20432;-68
2022/04/28 07:40:00;;;;;;;3.27;3.03;;;15.50;64.70;;;;;;5020188;28;20965;-67
2022/04/28 07:42:36;;;;;;;3.70;2.80;;;15.50;64.70;;;;;;5030317;28;21032;-67
2022/04/28 07:45:05;;;;;;;3.70;3.40;;;15.50;64.70;;;;;;5030611;28;20471;-68
2022/04/28 07:47:34;;;;;;;3.43;3.13;;;15.50;64.70;;;;;;5029341;28;20525;-66
2022/04/28 07:50:13;;;;;;;4.17;3.80;;;15.50;64.70;;;;;;5020348;28;20472;-67
2022/04/28 07:52:43;;;;;;;4.00;3.70;;;15.50;64.70;;;;;;5019047;28;20439;-67
2022/04/28 07:55:14;;;;;;;3.80;2.83;;;15.50;64.70;;;;;;5032313;28;20483;-68
2022/04/28 07:57:43;;;;;;;3.70;3.40;;;15.50;64.70;;;;;;5030219;28;20432;-66
2022/04/28 08:00:20;;;;;;;3.50;3.30;;;15.50;64.70;;;;;;5032470;28;20468;-68
2022/04/28 08:02:52;;;;;;;3.37;3.07;;;15.60;64.80;;;;;;5031559;28;20432;-64
2022/04/28 08:05:25;;;;;;;3.47;3.17;;;15.60;64.90;;;;;;5029721;28;20476;-66
2022/04/28 08:07:54;;;;;;;2.90;2.70;;;15.50;64.70;;;;;;5032035;28;20468;-67
2022/04/28 08:10:23;;;;;;;2.80;2.60;;;15.50;64.70;;;;;;5030851;28;20571;-67
2022/04/28 08:12:51;;;;;;;2.90;2.70;;;15.50;64.80;;;;;;5032185;28;20429;-68
2022/04/28 08:15:38;;;;;;;3.07;2.77;;;15.60;64.90;;;;;;5030348;28;20499;-67
2022/04/28 08:18:08;;;;;;;3.50;3.20;;;15.60;64.90;;;;;;5029934;28;20472;-67
2022/04/28 08:20:40;;;;;;;2.63;2.43;;;15.50;64.70;;;;;;5013300;28;20465;-68
2022/04/28 08:23:09;;;;;;;3.27;3.00;;;15.50;64.80;;;;;;5029820;28;20490;-68
2022/04/28 08:25:39;;;;;;;2.80;2.60;;;15.60;65.00;;;;;;5031097;28;20483;-67
2022/04/28 08:28:08;;;;;;;3.57;3.27;;;15.50;64.80;;;;;;5033353;28;20974;-68
2022/04/28 08:30:39;;;;;;;2.97;2.70;;;15.50;64.80;;;;;;5032006;28;20464;-67
2022/04/28 08:33:07;;;;;;;3.00;2.80;;;15.50;64.80;;;;;;5031385;28;20458;-68
2022/04/28 08:35:36;;;;;;;3.03;2.73;;;15.60;64.90;;;;;;5039305;28;20567;-66
2022/04/28 08:38:05;;;;;;;3.27;2.90;;;15.60;64.90;;;;;;5034108;28;20531;-67
2022/04/28 08:40:33;;;;;;;3.27;2.97;;;15.60;65.00;;;;;;5021218;28;20477;-68
2022/04/28 08:43:07;;;;;;;2.50;2.30;;;15.50;64.80;;;;;;5031587;28;20468;-66
2022/04/28 08:46:50;;;;;;;3.07;2.77;;;15.60;65.00;;;;;;5031464;28;20554;-68
2022/04/28 08:48:30;;;;;;;3.30;3.10;;;15.60;65.00;;;;;;5030814;28;21045;-67
2022/04/28 08:51:19;;;;;;;3.10;2.87;;;15.60;65.00;;;;;;5032685;28;20586;-67
2022/04/28 08:53:50;;;;;;;3.00;2.70;;;15.60;65.00;;;;;;5032513;28;20495;-68
2022/04/28 08:56:20;;;;;;;3.50;3.20;;;15.50;64.80;;;;;;5030970;28;20453;-68
2022/04/28 08:58:50;;;;;;;7.00;6.00;;;15.50;64.80;;;;;;5033502;28;20942;-66
2022/04/28 09:01:24;;;;;;;7.83;7.00;;;15.60;64.60;;;;;;5032260;28;20432;-66
2022/04/28 09:04:11;;;;;;;8.47;6.97;;;15.70;64.00;;;;;;5023048;28;20471;-68
2022/04/28 09:06:59;;;;;;;14.10;11.20;;;15.80;62.80;;;;;;5033835;28;20439;-67
2022/04/28 09:09:42;;;;;;;12.40;11.07;;;15.80;59.80;;;;;;5021264;28;20504;-67
2022/04/28 09:12:29;;;;;;;14.17;12.67;;;15.70;59.70;;;;;;5030535;28;20802;-68
2022/04/28 09:15:14;;;;;;;18.85;14.32;;;15.60;59.70;;;;;;5031652;28;20449;-67
2022/04/28 09:17:48;;;;;;;20.97;13.73;;;15.60;60.20;;;;;;5031992;28;20246;-66
2022/04/28 09:20:22;;;;;;;12.20;10.80;;;15.60;60.60;;;;;;5018876;28;20468;-67
2022/04/28 09:22:54;;;;;;;12.60;10.30;;;15.70;60.30;;;;;;5031940;28;20467;-68
2022/04/28 09:25:32;;;;;;;10.47;9.37;;;15.70;60.60;;;;;;5023317;28;20471;-66
2022/04/28 09:28:01;;;;;;;10.30;9.20;;;15.70;61.00;;;;;;5031945;28;20969;-67
2022/04/28 09:30:37;;;;;;;15.43;9.20;;;15.70;61.30;;;;;;5031491;28;20460;-68
2022/04/28 09:33:30;;;;;;;9.50;8.47;;;15.60;61.60;;;;;;5027316;28;20448;-69
2022/04/28 09:36:09;;;;;;;9.43;7.70;;;15.60;61.90;;;;;;5021799;28;20468;-68
2022/04/28 09:38:54;;;;;;;9.33;7.43;;;15.60;62.10;;;;;;5031741;28;20529;-66
2022/04/28 09:44:16;;;;;;;8.10;7.30;;;15.60;62.50;;;;;;5030704;28;20472;-66
2022/04/28 09:46:52;;;;;;;7.40;6.70;;;15.50;62.60;;;;;;5031606;28;20531;-67
2022/04/28 09:49:24;;;;;;;7.60;6.03;;;15.50;62.80;;;;;;5024602;28;20476;-67
2022/04/28 09:52:16;;;;;;;7.07;6.37;;;15.50;62.90;;;;;;5019742;28;20542;-68
2022/04/28 09:55:15;;;;;;;9.00;6.50;;;15.50;63.00;;;;;;5025528;28;21035;-69
2022/04/28 09:58:06;;;;;;;6.20;5.60;;;15.50;63.10;;;;;;5001405;28;20437;-67
2022/04/28 10:00:34;;;;;;;6.00;5.40;;;15.50;63.30;;;;;;5024087;28;20468;-68
2022/04/28 10:03:04;;;;;;;5.40;5.00;;;15.50;63.30;;;;;;5027705;28;20468;-66
2022/04/28 10:05:38;;;;;;;5.57;4.93;;;15.50;63.30;;;;;;5029295;28;20884;-68
2022/04/28 10:08:26;;;;;;;6.70;5.13;;;15.50;63.50;;;;;;5020719;28;20488;-67
2022/04/28 10:11:05;;;;;;;6.30;5.70;;;15.50;63.40;;;;;;5018402;28;20472;-67
2022/04/28 10:13:34;;;;;;;6.73;4.77;;;15.50;63.50;;;;;;5031681;28;20445;-67
2022/04/28 10:16:08;;;;;;;6.03;4.53;;;15.50;63.50;;;;;;5031457;28;20988;-67
2022/04/28 10:18:42;;;;;;;5.17;4.67;;;15.50;63.60;;;;;;5023661;28;20447;-67
2022/04/28 10:21:14;;;;;;;4.63;4.23;;;15.50;63.60;;;;;;5028784;28;20571;-66
2022/04/28 10:33:00;;;;;;;5.27;4.47;;;15.50;63.80;;;;;;5025522;28;20528;-67
2022/04/28 10:35:35;;;;;;;6.10;4.20;;;15.50;65.20;;;;;;5028329;28;20475;-67
2022/04/28 10:38:21;;;;;;;7.70;4.40;;;15.50;63.80;;;;;;5023053;28;20423;-73
2022/04/28 10:40:58;;;;;;;4.43;4.13;;;15.50;63.80;;;;;;5028199;28;20468;-73
2022/04/28 10:43:29;;;;;;;5.03;4.53;;;15.50;63.90;;;;;;5031486;28;20443;-74
2022/04/28 10:45:58;;;;;;;5.50;4.73;;;15.50;64.00;;;;;;5030511;28;20507;-73
2022/04/28 10:48:32;;;;;;;4.07;3.77;;;15.50;65.30;;;;;;5026897;28;20467;-74
2022/04/28 10:51:11;;;;;;;4.70;4.30;;;15.50;64.00;;;;;;5025653;28;20803;-73
2022/04/28 10:54:00;;;;;;;5.17;4.03;;;15.50;64.10;;;;;;5025362;28;20428;-72
2022/04/28 10:56:30;;;;;;;5.50;4.40;;;15.50;65.20;;;;;;5023125;28;20818;-74
2022/04/28 10:59:01;;;;;;;5.07;3.90;;;15.50;64.10;;;;;;5031089;28;20529;-73
2022/04/28 11:01:31;;;;;;;5.83;4.10;;;15.50;64.10;;;;;;5030869;28;20802;-72
2022/04/28 11:04:01;;;;;;;5.03;4.40;;;15.50;64.20;;;;;;5023244;28;20475;-73
2022/04/28 11:06:33;;;;;;;5.30;4.23;;;15.50;64.20;;;;;;5031329;28;20486;-73
2022/04/28 11:09:04;;;;;;;4.70;4.00;;;15.60;64.40;;;;;;5030667;28;20542;-73
2022/04/28 11:11:43;;;;;;;4.80;4.40;;;15.60;64.40;;;;;;5025628;28;20466;-73
2022/04/28 11:14:11;;;;;;;4.43;4.03;;;15.50;64.20;;;;;;5030227;28;20491;-73
2022/04/28 11:16:40;;;;;;;3.77;3.30;;;15.60;64.50;;;;;;5031244;28;20428;-73
2022/04/28 11:19:09;;;;;;;4.17;3.77;;;15.60;64.40;;;;;;5026828;28;20988;-73
2022/04/28 11:21:40;;;;;;;4.33;4.03;;;15.60;64.40;;;;;;5030644;28;20444;-73
2022/04/28 11:24:08;;;;;;;4.37;4.00;;;15.60;64.50;;;;;;5029540;28;20615;-73
2022/04/28 11:26:41;;;;;;;3.60;3.30;;;15.60;64.50;;;;;;5026429;28;20455;-73
2022/04/28 11:29:39;;;;;;;4.50;4.10;;;15.60;64.50;;;;;;5023584;28;20518;-74
2022/04/28 11:32:09;;;;;;;4.63;4.20;;;15.60;64.50;;;;;;5028530;28;20435;-73
2022/04/28 11:34:39;;;;;;;4.47;3.83;;;15.60;64.50;;;;;;5029885;28;20521;-73
2022/04/28 11:37:16;;;;;;;4.17;3.87;;;15.60;64.60;;;;;;5028798;28;20446;-74
2022/04/28 11:39:44;;;;;;;3.90;3.60;;;15.60;64.50;;;;;;5019773;28;20472;-73
2022/04/28 11:42:16;;;;;;;4.33;3.93;;;15.60;65.70;;;;;;5032159;28;20470;-73
2022/04/28 11:44:47;;;;;;;4.30;4.00;;;15.60;64.40;;;;;;5032635;28;20553;-73
2022/04/28 11:47:16;;;;;;;4.17;3.87;;;15.60;64.60;;;;;;5032568;28;20527;-73
2022/04/28 11:49:44;;;;;;;4.33;3.87;;;15.60;64.50;;;;;;5019007;28;20464;-73
2022/04/28 11:52:21;;;;;;;4.13;3.80;;;15.60;64.50;;;;;;5032396;28;20494;-73
2022/04/28 11:54:51;;;;;;;3.70;3.30;;;15.60;64.50;;;;;;5027156;28;20483;-73
2022/04/28 11:57:21;;;;;;;3.87;3.50;;;15.60;64.50;;;;;;5033685;28;20861;-73
2022/04/28 11:59:50;;;;;;;4.47;3.77;;;15.60;64.50;;;;;;5033208;28;20525;-73
2022/04/28 12:02:28;;;;;;;3.47;3.27;;;15.70;64.60;;;;;;5032861;28;20773;-74
2022/04/28 12:04:59;;;;;;;4.50;4.10;;;15.70;64.60;;;;;;5027206;28;20476;-73
2022/04/28 12:07:29;;;;;;;4.30;3.90;;;15.70;64.70;;;;;;5034208;28;20428;-73
2022/04/28 12:15:30;;;;;;;3.63;3.33;;;15.70;64.60;;;;;;5032944;28;20475;-73
2022/04/28 12:20:55;;;;;;;4.20;3.90;;;15.70;64.60;;;;;;5028953;28;20459;-73
2022/04/28 12:23:38;;;;;;;5.53;5.03;;;15.70;65.90;;;;;;5014736;28;20432;-73
2022/04/28 12:26:09;;;;;;;7.03;6.33;;;15.70;64.00;;;;;;5014238;28;20472;-74
2022/04/28 12:28:39;;;;;;;6.50;5.80;;;15.80;63.80;;;;;;5014700;28;20425;-73
2022/04/28 12:31:08;;;;;;;6.73;6.03;;;15.80;63.80;;;;;;5014209;28;20484;-73
2022/04/28 12:33:57;;;;;;;6.60;4.97;;;15.80;63.80;;;;;;5013848;28;20826;-73
2022/04/28 12:36:25;;;;;;;5.23;4.73;;;15.80;63.70;;;;;;5029688;28;20857;-73
2022/04/28 12:39:00;;;;;;;5.50;4.53;;;15.80;63.90;;;;;;5013874;28;20505;-73
2022/04/28 12:41:30;;;;;;;4.60;4.20;;;15.80;64.00;;;;;;5031457;28;20451;-73
2022/04/28 12:44:00;;;;;;;6.80;5.20;;;15.80;64.00;;;;;;5013869;28;20457;-73
2022/04/28 12:46:36;;;;;;;5.10;4.33;;;15.80;64.10;;;;;;5014437;28;20433;-73
2022/04/28 12:49:06;;;;;;;5.20;4.50;;;15.80;64.20;;;;;;5031477;28;20533;-74
2022/04/28 12:51:42;;;;;;;4.77;4.37;;;15.80;64.20;;;;;;5033968;28;20474;-73
2022/04/28 12:54:14;;;;;;;4.87;4.40;;;15.80;64.30;;;;;;5033466;28;20456;-73
2022/04/28 12:56:44;;;;;;;5.40;5.00;;;15.80;64.20;;;;;;5029843;28;20937;-73
2022/04/28 12:59:14;;;;;;;4.50;4.10;;;15.80;64.10;;;;;;5013795;28;20971;-74
2022/04/28 13:01:46;;;;;;;5.10;4.60;;;15.80;64.20;;;;;;5014195;28;20792;-73
2022/04/28 13:04:18;;;;;;;4.90;4.40;;;15.80;64.30;;;;;;5012780;28;20990;-73
2022/04/28 13:06:46;;;;;;;4.23;3.90;;;15.80;64.30;;;;;;5014272;28;20416;-74
2022/04/28 13:09:16;;;;;;;4.20;3.87;;;15.80;64.30;;;;;;5013511;28;20476;-73
2022/04/28 13:11:46;;;;;;;4.53;3.80;;;15.80;64.30;;;;;;5014141;28;20512;-73
2022/04/28 13:14:17;;;;;;;5.50;4.13;;;15.80;64.40;;;;;;5013054;28;20488;-72
2022/04/28 13:16:46;;;;;;;5.50;3.80;;;15.80;64.30;;;;;;5014171;28;20429;-73
2022/04/28 13:19:16;;;;;;;4.37;4.00;;;15.90;64.40;;;;;;5013212;28;20487;-73
2022/04/28 13:21:44;;;;;;;3.83;3.53;;;15.90;64.50;;;;;;5013958;28;20796;-73
2022/04/28 13:24:12;;;;;;;3.73;3.43;;;15.90;64.50;;;;;;5012344;28;20513;-74
2022/04/28 13:26:42;;;;;;;4.23;3.93;;;15.90;64.60;;;;;;5014095;28;20456;-73
2022/04/28 13:29:10;;;;;;;3.93;3.60;;;15.90;64.50;;;;;;5012870;28;20463;-73
2022/04/28 13:31:40;;;;;;;4.30;3.90;;;15.90;64.50;;;;;;5013502;28;20464;-73
2022/04/28 13:34:09;;;;;;;5.03;3.70;;;15.90;64.60;;;;;;5012543;28;20476;-73
2022/04/28 13:36:39;;;;;;;4.20;3.80;;;15.90;64.60;;;;;;5021111;28;20456;-74
2022/04/28 13:39:07;;;;;;;5.90;5.17;;;15.90;64.60;;;;;;5031907;28;20513;-73
2022/04/28 13:41:35;;;;;;;7.93;6.47;;;16.00;64.40;;;;;;5027189;28;20444;-73
2022/04/28 13:44:06;;;;;;;7.43;5.93;;;16.10;62.10;;;;;;5032095;28;20468;-73
2022/04/28 13:46:37;;;;;;;6.17;5.03;;;16.20;62.50;;;;;;5021327;28;20495;-73
2022/04/28 13:49:06;;;;;;;6.33;5.73;;;16.30;62.70;;;;;;5012450;28;20479;-73
2022/04/28 13:51:34;;;;;;;5.33;4.30;;;16.40;63.10;;;;;;5029680;28;20456;-74
2022/04/28 13:54:02;;;;;;;4.93;4.40;;;16.40;63.10;;;;;;5032045;28;20448;-74
2022/04/28 13:56:31;;;;;;;5.00;4.60;;;16.40;63.10;;;;;;5028136;28;20845;-74